createdAt,value
2019-05-21T00:00:58.857Z,11.30
2019-05-21T00:03:27.431Z,11.40
2019-05-21T00:05:55.964Z,11.40
2019-05-21T00:08:24.496Z,11.30
2019-05-21T00:10:53.352Z,11.30
2019-05-21T00:13:22.024Z,11.20
2019-05-21T00:15:50.651Z,11.30
2019-05-21T00:18:19.181Z,11.30
2019-05-21T00:20:47.802Z,11.30
2019-05-21T00:23:16.354Z,11.30
2019-05-21T00:25:44.866Z,11.30
2019-05-21T00:28:34.922Z,11.20
2019-05-21T00:31:40.045Z,11.30
2019-05-21T00:34:45.284Z,11.60
2019-05-21T00:37:50.167Z,11.50
2019-05-21T00:40:55.273Z,11.40
2019-05-21T00:43:29.507Z,11.60
2019-05-21T00:45:58.071Z,11.50
2019-05-21T00:48:27.410Z,11.60
2019-05-21T00:50:56.026Z,11.50
2019-05-21T00:53:24.656Z,11.50
2019-05-21T00:55:53.301Z,11.50
2019-05-21T00:58:22.225Z,11.40
2019-05-21T01:00:50.781Z,11.30
2019-05-21T01:03:19.327Z,11.20
2019-05-21T01:05:47.839Z,11.20
2019-05-21T01:08:16.315Z,11.20
2019-05-21T01:10:44.868Z,11.30
2019-05-21T01:13:13.538Z,11.20
2019-05-21T01:15:42.041Z,11.20
2019-05-21T01:18:10.593Z,11.30
2019-05-21T01:20:39.296Z,11.30
2019-05-21T01:23:07.854Z,11.40
2019-05-21T01:25:36.482Z,11.30
2019-05-21T01:28:05.155Z,11.20
2019-05-21T01:30:33.721Z,11.20
2019-05-21T01:33:02.272Z,11.30
2019-05-21T01:35:31.173Z,11.30
2019-05-21T01:38:00.329Z,11.40
2019-05-21T01:40:28.974Z,11.40
2019-05-21T01:42:57.642Z,11.20
2019-05-21T01:45:26.210Z,11.20
2019-05-21T01:47:54.792Z,11.10
2019-05-21T01:50:23.454Z,11.10
2019-05-21T01:52:52.046Z,11.10
2019-05-21T01:55:20.575Z,11.00
2019-05-21T01:57:49.182Z,11.00
2019-05-21T02:00:18.011Z,11.10
2019-05-21T02:02:46.581Z,11.00
2019-05-21T02:05:15.308Z,11.00
2019-05-21T02:07:43.858Z,11.10
2019-05-21T02:10:12.746Z,11.20
2019-05-21T02:12:41.337Z,11.20
2019-05-21T02:15:10.085Z,11.20
2019-05-21T02:17:39.193Z,11.10
2019-05-21T02:20:08.107Z,11.10
2019-05-21T02:22:36.763Z,11.10
2019-05-21T02:25:07.168Z,11.00
2019-05-21T02:27:35.770Z,11.10
2019-05-21T02:30:08.055Z,11.10
2019-05-21T02:32:36.792Z,11.10
2019-05-21T02:35:06.363Z,11.10
2019-05-21T02:37:34.886Z,10.90
2019-05-21T02:40:03.997Z,10.80
2019-05-21T02:42:32.872Z,10.80
2019-05-21T02:45:01.568Z,10.80
2019-05-21T02:47:30.188Z,10.70
2019-05-21T02:49:58.788Z,10.70
2019-05-21T02:52:27.355Z,10.70
2019-05-21T02:54:55.925Z,10.90
2019-05-21T02:57:26.139Z,11.00
2019-05-21T02:59:56.346Z,11.00
2019-05-21T03:02:26.793Z,11.00
2019-05-21T03:04:55.552Z,10.90
2019-05-21T03:07:25.678Z,10.90
2019-05-21T03:09:54.533Z,10.80
2019-05-21T03:12:23.203Z,10.70
2019-05-21T03:15:11.160Z,10.50
2019-05-21T03:17:39.726Z,10.50
2019-05-21T03:20:09.135Z,10.50
2019-05-21T03:22:37.629Z,10.50
2019-05-21T03:25:06.624Z,10.50
2019-05-21T03:27:35.363Z,10.50
2019-05-21T03:30:06.187Z,10.70
2019-05-21T03:32:34.926Z,10.70
2019-05-21T03:35:06.596Z,10.60
2019-05-21T03:37:35.248Z,10.60
2019-05-21T03:40:07.985Z,10.60
2019-05-21T03:42:36.644Z,10.50
2019-05-21T03:45:08.098Z,10.30
2019-05-21T03:47:37.241Z,10.40
2019-05-21T03:50:06.574Z,10.20
2019-05-21T03:52:35.202Z,10.00
2019-05-21T03:55:04.395Z,10.00
2019-05-21T03:57:33.760Z,10.00
2019-05-21T04:00:02.388Z,10.00
2019-05-21T04:02:30.934Z,10.10
2019-05-21T04:04:59.662Z,10.20
2019-05-21T04:07:28.280Z,10.20
2019-05-21T04:09:56.805Z,10.40
2019-05-21T04:12:25.381Z,10.50
2019-05-21T04:14:58.286Z,10.70
2019-05-21T04:17:28.555Z,10.90
2019-05-21T04:19:57.099Z,11.10
2019-05-21T04:22:25.651Z,11.20
2019-05-21T04:24:54.209Z,11.20
2019-05-21T04:27:22.735Z,11.40
2019-05-21T04:29:51.290Z,11.60
2019-05-21T04:32:19.866Z,11.70
2019-05-21T04:34:48.437Z,12.10
2019-05-21T04:37:17.559Z,12.20
2019-05-21T04:39:46.398Z,12.10
2019-05-21T04:42:14.963Z,12.20
2019-05-21T04:44:43.512Z,12.40
2019-05-21T04:47:12.069Z,12.50
2019-05-21T04:49:40.672Z,12.60
2019-05-21T04:52:09.282Z,12.50
2019-05-21T04:54:37.890Z,12.50
2019-05-21T04:57:06.479Z,12.60
2019-05-21T04:59:35.022Z,12.90
2019-05-21T05:02:03.618Z,12.80
2019-05-21T05:04:32.266Z,12.70
2019-05-21T05:07:00.876Z,12.60
2019-05-21T05:09:29.426Z,12.80
2019-05-21T05:11:58.830Z,12.80
2019-05-21T05:14:27.312Z,13.10
2019-05-21T05:16:57.685Z,13.10
2019-05-21T05:19:26.326Z,13.10
2019-05-21T05:21:54.907Z,13.30
2019-05-21T05:24:23.640Z,13.40
2019-05-21T05:26:52.249Z,13.60
2019-05-21T05:29:20.735Z,13.70
2019-05-21T05:31:49.227Z,13.30
2019-05-21T05:34:17.882Z,13.70
2019-05-21T05:36:46.425Z,14.00
2019-05-21T05:39:14.983Z,13.70
2019-05-21T05:41:43.573Z,13.60
2019-05-21T05:44:14.155Z,14.00
2019-05-21T05:46:42.710Z,13.70
2019-05-21T05:49:15.377Z,14.00
2019-05-21T05:51:44.189Z,13.90
2019-05-21T05:54:12.758Z,14.00
2019-05-21T05:56:41.429Z,14.20
2019-05-21T05:59:13.961Z,14.30
2019-05-21T06:01:40.682Z,14.50
2019-05-21T06:04:09.450Z,14.20
2019-05-21T06:06:38.166Z,14.30
2019-05-21T06:09:07.349Z,14.40
2019-05-21T06:11:35.874Z,14.80
2019-05-21T06:14:04.659Z,14.50
2019-05-21T06:16:33.214Z,14.40
2019-05-21T06:19:01.896Z,14.70
2019-05-21T06:21:30.678Z,14.90
2019-05-21T06:23:59.223Z,14.90
2019-05-21T06:26:27.911Z,14.80
2019-05-21T06:28:56.452Z,14.80
2019-05-21T06:31:25.056Z,15.30
2019-05-21T06:33:53.704Z,15.20
2019-05-21T06:36:22.484Z,15.00
2019-05-21T06:38:51.066Z,15.10
2019-05-21T06:41:19.699Z,14.90
2019-05-21T06:43:48.249Z,15.40
2019-05-21T06:46:16.909Z,15.30
2019-05-21T06:48:45.505Z,15.10
2019-05-21T06:51:14.065Z,15.10
2019-05-21T06:53:42.629Z,15.30
2019-05-21T06:56:12.549Z,16.10
2019-05-21T06:58:41.499Z,17.00
2019-05-21T07:01:10.091Z,17.60
2019-05-21T07:03:38.706Z,16.50
2019-05-21T07:06:07.232Z,15.40
2019-05-21T07:08:35.784Z,16.10
2019-05-21T07:11:04.890Z,15.80
2019-05-21T07:13:33.574Z,16.50
2019-05-21T07:16:02.138Z,16.20
2019-05-21T07:18:31.497Z,15.60
2019-05-21T07:21:00.023Z,15.60
2019-05-21T07:23:28.697Z,16.70
2019-05-21T07:25:57.272Z,17.40
2019-05-21T07:28:25.948Z,17.20
2019-05-21T07:30:54.554Z,16.70
2019-05-21T07:33:23.152Z,16.50
2019-05-21T07:35:51.707Z,16.80
2019-05-21T07:38:20.254Z,16.50
2019-05-21T07:40:48.990Z,16.40
2019-05-21T07:43:17.543Z,16.30
2019-05-21T07:45:46.082Z,16.20
2019-05-21T07:48:14.741Z,16.10
2019-05-21T07:50:43.296Z,16.40
2019-05-21T07:53:12.049Z,16.10
2019-05-21T07:55:40.694Z,15.80
2019-05-21T07:58:10.265Z,15.80
2019-05-21T08:00:38.765Z,15.60
2019-05-21T08:03:07.399Z,16.10
2019-05-21T08:05:36.057Z,16.00
2019-05-21T08:08:05.451Z,16.30
2019-05-21T08:10:34.122Z,16.40
2019-05-21T08:13:02.810Z,16.10
2019-05-21T08:15:31.459Z,16.40
2019-05-21T08:18:00.177Z,16.40
2019-05-21T08:20:29.056Z,16.70
2019-05-21T08:22:57.692Z,16.70
2019-05-21T08:25:26.300Z,16.60
2019-05-21T08:27:54.968Z,16.70
2019-05-21T08:30:23.776Z,17.50
2019-05-21T08:32:52.952Z,17.20
2019-05-21T08:35:21.763Z,17.30
2019-05-21T08:37:51.075Z,17.10
2019-05-21T08:40:20.287Z,17.20
2019-05-21T08:42:48.843Z,16.90
2019-05-21T08:45:17.793Z,17.00
2019-05-21T08:47:46.549Z,16.60
2019-05-21T08:50:15.497Z,16.20
2019-05-21T08:52:44.657Z,16.30
2019-05-21T08:55:13.404Z,16.40
2019-05-21T08:57:42.075Z,16.30
2019-05-21T09:00:15.117Z,16.50
2019-05-21T09:02:43.914Z,16.90
2019-05-21T09:05:13.169Z,16.80
2019-05-21T09:07:41.839Z,16.70
2019-05-21T09:10:12.269Z,16.70
2019-05-21T09:12:40.911Z,16.50
2019-05-21T09:15:10.067Z,16.50
2019-05-21T09:17:38.661Z,16.10
2019-05-21T09:20:12.339Z,16.10
2019-05-21T09:22:41.139Z,16.20
2019-05-21T09:25:10.192Z,16.30
2019-05-21T09:27:38.839Z,17.00
2019-05-21T09:30:09.431Z,16.90
2019-05-21T09:32:38.449Z,17.00
2019-05-21T09:35:08.041Z,17.50
2019-05-21T09:37:36.729Z,17.10
2019-05-21T09:40:08.298Z,17.20
2019-05-21T09:42:36.806Z,17.40
2019-05-21T09:45:07.237Z,17.70
2019-05-21T09:47:35.961Z,17.60
2019-05-21T09:50:07.659Z,17.40
2019-05-21T09:52:36.352Z,17.00
2019-05-21T09:55:06.683Z,17.80
2019-05-21T09:57:53.335Z,18.20
2019-05-21T10:00:36.117Z,17.50
2019-05-21T10:03:06.775Z,17.60
2019-05-21T10:05:35.310Z,17.80
2019-05-21T10:08:04.315Z,17.70
2019-05-21T10:10:32.859Z,18.10
2019-05-21T10:13:01.495Z,17.40
2019-05-21T10:15:30.066Z,17.70
2019-05-21T10:17:59.089Z,17.80
2019-05-21T10:20:27.684Z,18.60
2019-05-21T10:22:56.459Z,18.10
2019-05-21T10:25:25.843Z,18.10
2019-05-21T10:27:54.409Z,18.20
2019-05-21T10:30:23.134Z,18.40
2019-05-21T10:32:51.769Z,18.20
2019-05-21T10:35:20.594Z,17.30
2019-05-21T10:37:55.139Z,17.60
2019-05-21T10:40:19.648Z,17.70
2019-05-21T10:42:48.197Z,17.90
2019-05-21T10:45:16.944Z,18.00
2019-05-21T10:47:45.551Z,17.40
2019-05-21T10:50:14.244Z,17.30
2019-05-21T10:52:42.839Z,17.40
2019-05-21T10:55:15.963Z,17.80
2019-05-21T10:57:43.405Z,17.40
2019-05-21T11:00:22.991Z,17.50
2019-05-21T11:02:53.045Z,17.30
2019-05-21T11:05:23.300Z,17.50
2019-05-21T11:07:51.894Z,17.90
2019-05-21T11:10:20.579Z,18.00
2019-05-21T11:12:49.277Z,17.60
2019-05-21T11:15:19.034Z,17.60
2019-05-21T11:17:59.232Z,17.60
2019-05-21T11:20:18.063Z,17.40
2019-05-21T11:22:46.687Z,17.90
2019-05-21T11:25:15.345Z,18.20
2019-05-21T11:27:43.961Z,18.00
2019-05-21T11:30:13.304Z,17.70
2019-05-21T11:32:41.997Z,17.90
2019-05-21T11:35:11.096Z,18.00
2019-05-21T11:37:40.241Z,17.80
2019-05-21T11:40:10.529Z,17.50
2019-05-21T11:42:39.201Z,17.50
2019-05-21T11:45:08.616Z,17.20
2019-05-21T11:47:37.229Z,17.50
2019-05-21T11:50:08.410Z,17.50
2019-05-21T11:52:37.020Z,17.50
2019-05-21T11:55:06.213Z,18.20
2019-05-21T11:57:34.921Z,18.50
2019-05-21T12:00:05.184Z,18.60
2019-05-21T12:02:33.853Z,18.30
2019-05-21T12:05:02.376Z,18.20
2019-05-21T12:07:31.095Z,18.40
2019-05-21T12:09:59.652Z,18.80
2019-05-21T12:12:28.210Z,18.80
2019-05-21T12:14:56.988Z,18.70
2019-05-21T12:17:25.662Z,18.30
2019-05-21T12:19:54.320Z,18.00
2019-05-21T12:22:23.086Z,17.80
2019-05-21T12:24:51.636Z,18.10
2019-05-21T12:27:20.187Z,17.70
2019-05-21T12:29:48.776Z,17.80
2019-05-21T12:32:20.822Z,17.70
2019-05-21T12:34:47.608Z,17.60
2019-05-21T12:37:16.312Z,17.70
2019-05-21T12:39:44.853Z,17.80
2019-05-21T12:42:13.402Z,17.70
2019-05-21T12:44:42.239Z,17.80
2019-05-21T12:47:10.793Z,17.70
2019-05-21T12:49:39.515Z,17.60
2019-05-21T12:52:08.227Z,17.50
2019-05-21T12:54:36.946Z,17.50
2019-05-21T12:57:05.603Z,17.60
2019-05-21T12:59:34.279Z,17.90
2019-05-21T13:02:02.826Z,18.00
2019-05-21T13:04:31.384Z,17.90
2019-05-21T13:06:59.994Z,17.90
2019-05-21T13:09:47.892Z,18.10
2019-05-21T13:12:16.586Z,17.90
2019-05-21T13:14:45.224Z,18.00
2019-05-21T13:17:14.421Z,18.60
2019-05-21T13:19:43.046Z,19.10
2019-05-21T13:22:11.643Z,18.80
2019-05-21T13:24:40.267Z,18.70
2019-05-21T13:27:09.038Z,18.80
2019-05-21T13:29:37.709Z,18.70
2019-05-21T13:32:06.239Z,18.90
2019-05-21T13:34:34.898Z,19.40
2019-05-21T13:37:04.461Z,18.70
2019-05-21T13:39:47.243Z,18.90
2019-05-21T13:42:03.325Z,19.00
2019-05-21T13:44:31.958Z,19.30
2019-05-21T13:47:00.591Z,19.10
2019-05-21T13:49:29.244Z,19.70
2019-05-21T13:51:57.741Z,19.10
2019-05-21T13:54:29.260Z,18.60
2019-05-21T13:56:57.997Z,18.90
2019-05-21T13:59:26.728Z,18.60
2019-05-21T14:01:56.338Z,18.80
2019-05-21T14:04:25.051Z,19.00
2019-05-21T14:06:53.672Z,19.60
2019-05-21T14:09:22.229Z,19.50
2019-05-21T14:11:51.018Z,19.20
2019-05-21T14:14:19.593Z,18.90
2019-05-21T14:16:48.144Z,18.70
2019-05-21T14:19:16.836Z,18.70
2019-05-21T14:21:45.377Z,18.90
2019-05-21T14:24:13.935Z,18.80
2019-05-21T14:26:42.594Z,19.10
2019-05-21T14:29:11.575Z,19.20
2019-05-21T14:31:40.098Z,19.20
2019-05-21T14:34:08.814Z,19.40
2019-05-21T14:36:37.429Z,18.90
2019-05-21T14:39:09.081Z,18.40
2019-05-21T14:41:38.852Z,18.00
2019-05-21T14:44:07.432Z,18.00
2019-05-21T14:46:36.061Z,18.10
2019-05-21T14:49:04.562Z,18.00
2019-05-21T14:51:33.209Z,18.20
2019-05-21T14:54:05.572Z,18.20
2019-05-21T14:56:34.172Z,17.90
2019-05-21T14:59:02.811Z,17.60
2019-05-21T15:01:31.436Z,17.20
2019-05-21T15:04:00.189Z,17.20
2019-05-21T15:06:29.018Z,17.40
2019-05-21T15:08:57.600Z,17.60
2019-05-21T15:11:26.186Z,17.70
2019-05-21T15:13:54.689Z,17.80
2019-05-21T15:16:23.255Z,17.70
2019-05-21T15:18:51.980Z,17.70
2019-05-21T15:21:28.402Z,17.60
2019-05-21T15:23:57.255Z,17.50
2019-05-21T15:26:26.218Z,17.50
2019-05-21T15:28:54.776Z,17.40
2019-05-21T15:31:24.080Z,17.00
2019-05-21T15:33:52.731Z,17.00
2019-05-21T15:36:21.296Z,17.00
2019-05-21T15:38:51.287Z,16.90
2019-05-21T15:41:26.811Z,16.80
2019-05-21T15:43:56.279Z,16.80
2019-05-21T15:46:24.835Z,16.80
2019-05-21T15:48:53.434Z,16.60
2019-05-21T15:51:22.006Z,16.70
2019-05-21T15:53:50.679Z,16.80
2019-05-21T15:56:19.384Z,16.80
2019-05-21T15:58:48.349Z,16.80
2019-05-21T16:01:16.823Z,16.80
2019-05-21T16:03:45.440Z,16.70
2019-05-21T16:06:14.215Z,16.60
2019-05-21T16:08:42.903Z,16.60
2019-05-21T16:11:27.442Z,16.60
2019-05-21T16:13:41.876Z,16.60
2019-05-21T16:16:10.612Z,16.50
2019-05-21T16:18:39.181Z,16.50
2019-05-21T16:21:07.714Z,16.40
2019-05-21T16:23:36.314Z,16.30
2019-05-21T16:26:05.078Z,16.20
2019-05-21T16:28:33.665Z,16.30
2019-05-21T16:31:02.245Z,16.10
2019-05-21T16:33:31.172Z,16.20
2019-05-21T16:35:59.676Z,16.20
2019-05-21T16:38:29.254Z,16.20
2019-05-21T16:40:57.859Z,16.00
2019-05-21T16:43:26.483Z,16.00
2019-05-21T16:45:55.202Z,16.00
2019-05-21T16:48:23.871Z,15.90
2019-05-21T16:50:52.423Z,15.90
2019-05-21T16:53:21.014Z,15.80
2019-05-21T16:55:49.609Z,15.70
2019-05-21T16:58:18.289Z,15.70
2019-05-21T17:00:47.450Z,15.70
2019-05-21T17:03:16.074Z,15.60
2019-05-21T17:05:44.729Z,15.60
2019-05-21T17:08:13.324Z,15.60
2019-05-21T17:10:41.959Z,15.70
2019-05-21T17:13:10.499Z,15.60
2019-05-21T17:15:39.074Z,15.50
2019-05-21T17:18:07.809Z,15.50
2019-05-21T17:20:36.373Z,15.40
2019-05-21T17:23:04.949Z,15.40
2019-05-21T17:25:33.552Z,15.30
2019-05-21T17:28:02.107Z,15.30
2019-05-21T17:30:30.669Z,15.30
2019-05-21T17:32:59.358Z,15.30
2019-05-21T17:35:28.819Z,15.20
2019-05-21T17:37:57.382Z,15.30
2019-05-21T17:40:26.436Z,15.20
2019-05-21T17:42:55.003Z,15.30
2019-05-21T17:45:23.558Z,15.20
2019-05-21T17:47:52.246Z,15.10
2019-05-21T17:50:21.219Z,15.10
2019-05-21T17:52:49.770Z,15.00
2019-05-21T17:55:18.536Z,15.00
2019-05-21T17:57:47.807Z,14.90
2019-05-21T18:00:18.655Z,14.80
2019-05-21T18:02:48.493Z,14.70
2019-05-21T18:05:17.288Z,14.70
2019-05-21T18:07:45.839Z,14.60
2019-05-21T18:10:16.411Z,14.60
2019-05-21T18:12:45.192Z,14.50
2019-05-21T18:15:14.561Z,14.50
2019-05-21T18:17:44.321Z,14.50
2019-05-21T18:20:15.085Z,14.50
2019-05-21T18:22:45.679Z,14.50
2019-05-21T18:25:14.855Z,14.50
2019-05-21T18:27:43.605Z,14.40
2019-05-21T18:30:13.292Z,14.40
2019-05-21T18:32:42.254Z,14.40
2019-05-21T18:35:11.587Z,14.30
2019-05-21T18:37:40.395Z,14.20
2019-05-21T18:40:09.842Z,14.20
2019-05-21T18:42:38.499Z,14.30
2019-05-21T18:45:08.221Z,14.20
2019-05-21T18:47:36.800Z,14.30
2019-05-21T18:50:36.427Z,14.20
2019-05-21T18:52:59.814Z,14.10
2019-05-21T18:55:28.542Z,14.10
2019-05-21T18:57:57.249Z,14.00
2019-05-21T19:00:26.621Z,14.00
2019-05-21T19:02:55.220Z,14.00
2019-05-21T19:05:23.955Z,13.90
2019-05-21T19:07:53.242Z,13.90
2019-05-21T19:10:21.834Z,13.90
2019-05-21T19:12:50.599Z,13.80
2019-05-21T19:15:19.334Z,13.80
2019-05-21T19:17:48.024Z,13.80
2019-05-21T19:20:16.871Z,13.80
2019-05-21T19:22:45.484Z,13.80
2019-05-21T19:25:14.211Z,13.70
2019-05-21T19:27:42.972Z,13.70
2019-05-21T19:30:13.768Z,13.70
2019-05-21T19:32:42.395Z,13.70
2019-05-21T19:35:11.183Z,13.70
2019-05-21T19:37:39.862Z,13.70
2019-05-21T19:40:09.212Z,13.60
2019-05-21T19:42:53.462Z,13.60
2019-05-21T19:45:08.760Z,13.50
2019-05-21T19:47:39.576Z,13.70
2019-05-21T19:50:09.034Z,13.60
2019-05-21T19:52:37.573Z,13.60
2019-05-21T19:55:07.434Z,13.50
2019-05-21T19:57:38.365Z,13.50
2019-05-21T20:00:09.757Z,13.40
2019-05-21T20:02:38.987Z,13.50
2019-05-21T20:05:08.363Z,13.50
2019-05-21T20:07:37.903Z,13.40
2019-05-21T20:10:07.761Z,13.40
2019-05-21T20:12:36.523Z,13.40
2019-05-21T20:15:07.494Z,13.40
2019-05-21T20:17:36.886Z,13.40
2019-05-21T20:20:07.459Z,13.30
2019-05-21T20:22:36.622Z,13.30
2019-05-21T20:25:07.615Z,13.30
2019-05-21T20:27:37.912Z,13.20
2019-05-21T20:30:13.093Z,13.10
2019-05-21T20:32:43.204Z,13.10
2019-05-21T20:35:14.222Z,13.10
2019-05-21T20:37:46.164Z,13.10
2019-05-21T20:40:15.642Z,13.20
2019-05-21T20:42:44.751Z,13.20
2019-05-21T20:45:22.755Z,13.20
2019-05-21T20:48:03.673Z,13.20
2019-05-21T20:50:33.765Z,13.20
2019-05-21T20:53:10.061Z,13.20
2019-05-21T20:55:39.754Z,13.10
2019-05-21T20:58:11.549Z,13.10
2019-05-21T21:00:54.079Z,13.10
2019-05-21T21:03:23.006Z,12.90
2019-05-21T21:05:52.188Z,12.90
2019-05-21T21:08:22.623Z,12.80
2019-05-21T21:10:51.470Z,12.80
2019-05-21T21:13:20.668Z,12.80
2019-05-21T21:15:49.283Z,12.80
2019-05-21T21:18:17.854Z,12.70
2019-05-21T21:20:46.472Z,12.70
2019-05-21T21:23:17.372Z,12.70
2019-05-21T21:25:46.277Z,12.60
2019-05-21T21:28:14.924Z,12.60
2019-05-21T21:30:43.742Z,12.60
2019-05-21T21:33:13.431Z,12.50
2019-05-21T21:35:42.503Z,12.50
2019-05-21T21:38:13.233Z,12.50
2019-05-21T21:40:42.095Z,12.50
2019-05-21T21:43:10.722Z,12.50
2019-05-21T21:45:39.419Z,12.60
2019-05-21T21:48:08.744Z,12.60
2019-05-21T21:50:40.129Z,12.60
2019-05-21T21:53:09.340Z,12.50
2019-05-21T21:55:38.333Z,12.60
2019-05-21T21:58:06.878Z,12.60
2019-05-21T22:00:57.355Z,12.60
2019-05-21T22:03:29.080Z,12.50
2019-05-21T22:05:58.342Z,12.60
2019-05-21T22:08:27.795Z,12.60
2019-05-21T22:10:56.524Z,12.60
2019-05-21T22:13:25.797Z,12.60
2019-05-21T22:15:55.389Z,12.60
2019-05-21T22:18:25.539Z,12.60
2019-05-21T22:20:54.436Z,12.60
2019-05-21T22:23:23.103Z,12.60
2019-05-21T22:25:51.704Z,12.60
2019-05-21T22:28:20.336Z,12.60
2019-05-21T22:30:49.192Z,12.60
2019-05-21T22:33:18.822Z,12.60
2019-05-21T22:35:47.443Z,12.60
2019-05-21T22:38:16.301Z,12.60
2019-05-21T22:40:45.030Z,12.60
2019-05-21T22:43:13.596Z,12.60
2019-05-21T22:45:42.265Z,12.60
2019-05-21T22:48:10.898Z,12.70
2019-05-21T22:50:39.531Z,12.70
2019-05-21T22:53:08.204Z,12.70
2019-05-21T22:55:37.127Z,12.70
2019-05-21T22:58:06.064Z,12.70
2019-05-21T23:00:35.483Z,12.70
2019-05-21T23:03:04.515Z,12.70
2019-05-21T23:05:33.151Z,12.70
2019-05-21T23:08:02.761Z,12.70
2019-05-21T23:10:31.584Z,12.70
2019-05-21T23:13:00.788Z,12.70
2019-05-21T23:15:29.566Z,12.70
2019-05-21T23:17:58.212Z,12.70
2019-05-21T23:20:28.783Z,12.70
2019-05-21T23:22:57.437Z,12.70
2019-05-21T23:25:27.471Z,12.70
2019-05-21T23:27:56.027Z,12.70
2019-05-21T23:30:26.290Z,12.70
2019-05-21T23:32:55.543Z,12.70
2019-05-21T23:35:24.384Z,12.70
2019-05-21T23:37:53.656Z,12.70
2019-05-21T23:40:22.205Z,12.80
2019-05-21T23:42:51.179Z,12.80
2019-05-21T23:45:20.648Z,12.80
2019-05-21T23:47:50.048Z,12.70
2019-05-21T23:50:20.628Z,12.80
2019-05-21T23:52:49.294Z,12.70
2019-05-21T23:55:17.857Z,12.70
2019-05-21T23:57:46.859Z,12.70
